sensor_id;sensor_type;location;lat;lon;timestamp;pressure;altitude;pressure_sealevel;temperature;humidity
63090;BME280;49174;43.198;27.824;2023-04-04T04:08:20;100594.13;;;10.54;99.40
63090;BME280;49174;43.198;27.824;2023-04-04T04:10:46;100597.41;;;10.49;100.00
63090;BME280;49174;43.198;27.824;2023-04-04T04:13:12;100585.38;;;10.52;100.00
63090;BME280;49174;43.198;27.824;2023-04-04T04:15:37;100570.44;;;10.49;100.00
63090;BME280;49174;43.198;27.824;2023-04-04T04:18:03;100576.88;;;10.48;100.00
63090;BME280;49174;43.198;27.824;2023-04-04T04:20:28;100566.06;;;10.48;100.00
63090;BME280;49174;43.198;27.824;2023-04-04T04:22:54;100566.47;;;10.45;100.00
63090;BME280;49174;43.198;27.824;2023-04-04T04:25:19;100552.94;;;10.39;100.00
63090;BME280;49174;43.198;27.824;2023-04-04T04:27:45;100556.94;;;10.43;100.00
63090;BME280;49174;43.198;27.824;2023-04-04T04:30:11;100538.44;;;10.40;100.00
63090;BME280;49174;43.198;27.824;2023-04-04T04:32:37;100524.75;;;10.41;100.00
63090;BME280;49174;43.198;27.824;2023-04-04T04:35:02;100517.47;;;10.42;100.00
63090;BME280;49174;43.198;27.824;2023-04-04T04:37:28;100513.72;;;10.36;100.00
63090;BME280;49174;43.198;27.824;2023-04-04T04:39:54;100493.63;;;10.39;100.00
63090;BME280;49174;43.198;27.824;2023-04-04T04:42:19;100494.31;;;10.19;100.00
63090;BME280;49174;43.198;27.824;2023-04-04T04:44:45;100492.03;;;10.16;100.00
63090;BME280;49174;43.198;27.824;2023-04-04T04:47:17;100502.97;;;10.01;100.00
63090;BME280;49174;43.198;27.824;2023-04-04T04:49:43;100507.94;;;9.98;100.00
63090;BME280;49174;43.198;27.824;2023-04-04T04:52:12;100528.25;;;10.00;100.00
63090;BME280;49174;43.198;27.824;2023-04-04T04:54:37;100553.34;;;10.01;100.00
63090;BME280;49174;43.198;27.824;2023-04-04T04:57:03;100572.31;;;10.14;100.00
63090;BME280;49174;43.198;27.824;2023-04-04T04:59:28;100575.03;;;10.21;100.00
63090;BME280;49174;43.198;27.824;2023-04-04T05:01:54;100592.03;;;10.21;100.00
63090;BME280;49174;43.198;27.824;2023-04-04T05:04:20;100596.50;;;10.36;100.00
63090;BME280;49174;43.198;27.824;2023-04-04T05:06:45;100603.38;;;10.38;100.00
63090;BME280;49174;43.198;27.824;2023-04-04T05:09:11;100599.28;;;10.49;100.00
63090;BME280;49174;43.198;27.824;2023-04-04T05:11:36;100612.75;;;10.42;100.00
63090;BME280;49174;43.198;27.824;2023-04-04T05:14:02;100618.59;;;10.24;100.00
63090;BME280;49174;43.198;27.824;2023-04-04T05:16:27;100615.19;;;10.09;100.00
63090;BME280;49174;43.198;27.824;2023-04-04T05:18:53;100609.13;;;10.28;100.00
63090;BME280;49174;43.198;27.824;2023-04-04T05:21:18;100623.72;;;10.41;100.00
63090;BME280;49174;43.198;27.824;2023-04-04T05:23:44;100624.38;;;10.49;98.40
63090;BME280;49174;43.198;27.824;2023-04-04T05:26:10;100628.13;;;10.48;100.00
63090;BME280;49174;43.198;27.824;2023-04-04T05:28:35;100635.06;;;10.29;100.00
63090;BME280;49174;43.198;27.824;2023-04-04T05:31:01;100618.97;;;10.43;100.00
63090;BME280;49174;43.198;27.824;2023-04-04T05:33:26;100621.25;;;10.46;100.00
63090;BME280;49174;43.198;27.824;2023-04-04T05:35:52;100612.56;;;10.50;100.00
63090;BME280;49174;43.198;27.824;2023-04-04T05:38:17;100602.84;;;10.56;100.00
63090;BME280;49174;43.198;27.824;2023-04-04T05:40:43;100595.25;;;10.73;99.67
63090;BME280;49174;43.198;27.824;2023-04-04T05:43:10;100590.88;;;10.72;99.37
63090;BME280;49174;43.198;27.824;2023-04-04T05:45:35;100604.81;;;10.76;100.00
63090;BME280;49174;43.198;27.824;2023-04-04T05:48:01;100605.66;;;10.83;99.93
63090;BME280;49174;43.198;27.824;2023-04-04T05:50:26;100611.28;;;10.88;99.02
63090;BME280;49174;43.198;27.824;2023-04-04T05:52:53;100615.44;;;10.84;98.76
63090;BME280;49174;43.198;27.824;2023-04-04T05:55:19;100617.50;;;10.82;98.70
63090;BME280;49174;43.198;27.824;2023-04-04T05:57:49;100598.38;;;10.83;98.73
63090;BME280;49174;43.198;27.824;2023-04-04T06:00:16;100602.75;;;10.84;98.57
63090;BME280;49174;43.198;27.824;2023-04-04T06:02:43;100598.41;;;10.90;98.73
63090;BME280;49174;43.198;27.824;2023-04-04T06:05:09;100580.13;;;10.92;98.92
63090;BME280;49174;43.198;27.824;2023-04-04T06:07:35;100579.75;;;10.95;98.40
63090;BME280;49174;43.198;27.824;2023-04-04T06:10:01;100579.53;;;10.96;99.28
63090;BME280;49174;43.198;27.824;2023-04-04T06:12:27;100577.06;;;10.95;98.40
63090;BME280;49174;43.198;27.824;2023-04-04T06:14:52;100568.53;;;10.98;99.47
63090;BME280;49174;43.198;27.824;2023-04-04T06:17:18;100577.06;;;11.02;98.50
63090;BME280;49174;43.198;27.824;2023-04-04T06:19:44;100572.72;;;11.07;97.82
63090;BME280;49174;43.198;27.824;2023-04-04T06:22:09;100584.56;;;11.06;98.47
63090;BME280;49174;43.198;27.824;2023-04-04T06:24:35;100577.88;;;11.02;98.76
63090;BME280;49174;43.198;27.824;2023-04-04T06:27:00;100573.13;;;11.04;97.95
63090;BME280;49174;43.198;27.824;2023-04-04T06:29:27;100571.06;;;11.06;98.59
63090;BME280;49174;43.198;27.824;2023-04-04T06:31:53;100568.34;;;11.06;98.59
63090;BME280;49174;43.198;27.824;2023-04-04T06:34:22;100558.56;;;11.05;98.78
63090;BME280;49174;43.198;27.824;2023-04-04T06:36:48;100548.78;;;10.98;99.82
63090;BME280;49174;43.198;27.824;2023-04-04T06:39:13;100550.47;;;11.05;100.00
63090;BME280;49174;43.198;27.824;2023-04-04T06:41:39;100530.56;;;11.06;100.00
63090;BME280;49174;43.198;27.824;2023-04-04T06:44:04;100533.88;;;11.08;100.00
63090;BME280;49174;43.198;27.824;2023-04-04T06:46:30;100525.34;;;11.11;100.00
63090;BME280;49174;43.198;27.824;2023-04-04T06:48:57;100523.69;;;11.10;99.89
63090;BME280;49174;43.198;27.824;2023-04-04T06:51:23;100524.97;;;11.14;100.00
63090;BME280;49174;43.198;27.824;2023-04-04T06:53:49;100498.97;;;11.13;100.00
63090;BME280;49174;43.198;27.824;2023-04-04T06:56:15;100512.06;;;11.16;100.00
63090;BME280;49174;43.198;27.824;2023-04-04T06:58:40;100497.09;;;11.14;100.00
63090;BME280;49174;43.198;27.824;2023-04-04T07:01:07;100482.16;;;11.11;100.00
63090;BME280;49174;43.198;27.824;2023-04-04T07:03:33;100487.16;;;11.14;100.00
63090;BME280;49174;43.198;27.824;2023-04-04T07:06:01;100487.56;;;11.25;100.00
63090;BME280;49174;43.198;27.824;2023-04-04T07:08:29;100488.59;;;11.24;100.00
63090;BME280;49174;43.198;27.824;2023-04-04T07:10:55;100484.22;;;11.23;99.67
63090;BME280;49174;43.198;27.824;2023-04-04T07:13:20;100489.25;;;11.26;100.00
63090;BME280;49174;43.198;27.824;2023-04-04T07:15:46;100502.31;;;11.29;98.38
63090;BME280;49174;43.198;27.824;2023-04-04T07:18:14;100519.13;;;11.31;98.98
63090;BME280;49174;43.198;27.824;2023-04-04T07:20:40;100523.50;;;11.25;98.20
63090;BME280;49174;43.198;27.824;2023-04-04T07:23:08;100535.75;;;11.21;99.18
63090;BME280;49174;43.198;27.824;2023-04-04T07:25:35;100523.31;;;11.27;99.71
63090;BME280;49174;43.198;27.824;2023-04-04T07:28:01;100517.06;;;11.33;99.02
63090;BME280;49174;43.198;27.824;2023-04-04T07:30:26;100507.53;;;11.37;97.92
63090;BME280;49174;43.198;27.824;2023-04-04T07:33:01;100497.97;;;11.34;97.94
63090;BME280;49174;43.198;27.824;2023-04-04T07:35:27;100492.16;;;11.37;97.90
63090;BME280;49174;43.198;27.824;2023-04-04T07:37:53;100481.97;;;11.39;98.39
63090;BME280;49174;43.198;27.824;2023-04-04T07:40:19;100477.19;;;11.35;97.91
63090;BME280;49174;43.198;27.824;2023-04-04T07:42:45;100472.84;;;11.34;98.22
63090;BME280;49174;43.198;27.824;2023-04-04T07:45:12;100462.84;;;11.41;97.47
63090;BME280;49174;43.198;27.824;2023-04-04T07:47:42;100468.47;;;11.39;98.21
63090;BME280;49174;43.198;27.824;2023-04-04T07:50:08;100460.56;;;11.38;98.51
63090;BME280;49174;43.198;27.824;2023-04-04T07:52:34;100466.38;;;11.22;99.04
63090;BME280;49174;43.198;27.824;2023-04-04T07:55:00;100483.84;;;11.26;99.15
63090;BME280;49174;43.198;27.824;2023-04-04T07:57:27;100486.94;;;11.29;98.48
63090;BME280;49174;43.198;27.824;2023-04-04T07:59:55;100475.13;;;11.37;98.75
63090;BME280;49174;43.198;27.824;2023-04-04T08:02:20;100463.06;;;11.39;99.12
63090;BME280;49174;43.198;27.824;2023-04-04T08:04:46;100469.88;;;11.42;98.31
63090;BME280;49174;43.198;27.824;2023-04-04T08:07:12;100467.19;;;11.42;99.60
63090;BME280;49174;43.198;27.824;2023-04-04T08:09:39;100464.47;;;11.42;99.18
63090;BME280;49174;43.198;27.824;2023-04-04T08:12:06;100455.78;;;11.40;99.06
63090;BME280;49174;43.198;27.824;2023-04-04T08:14:32;100462.19;;;11.39;99.00
63090;BME280;49174;43.198;27.824;2023-04-04T08:16:58;100462.19;;;11.39;99.49
63090;BME280;49174;43.198;27.824;2023-04-04T08:19:24;100463.06;;;11.39;99.46
63090;BME280;49174;43.198;27.824;2023-04-04T08:21:49;100469.50;;;11.45;99.46
63090;BME280;49174;43.198;27.824;2023-04-04T08:24:15;100466.97;;;11.50;98.55
63090;BME280;49174;43.198;27.824;2023-04-04T08:26:41;100465.94;;;11.51;98.89
63090;BME280;49174;43.198;27.824;2023-04-04T08:29:07;100475.50;;;11.54;98.13
63090;BME280;49174;43.198;27.824;2023-04-04T08:31:33;100481.13;;;11.46;99.26
63090;BME280;49174;43.198;27.824;2023-04-04T08:33:59;100481.94;;;11.53;98.67
63090;BME280;49174;43.198;27.824;2023-04-04T08:36:26;100477.16;;;11.55;99.11
63090;BME280;49174;43.198;27.824;2023-04-04T08:38:52;100475.06;;;11.70;97.98
63090;BME280;49174;43.198;27.824;2023-04-04T08:41:18;100471.72;;;11.75;98.06
63090;BME280;49174;43.198;27.824;2023-04-04T08:43:45;100484.38;;;11.81;96.80
63090;BME280;49174;43.198;27.824;2023-04-04T08:46:22;100491.28;;;11.90;97.23
63090;BME280;49174;43.198;27.824;2023-04-04T08:48:49;100485.66;;;11.92;97.17
63090;BME280;49174;43.198;27.824;2023-04-04T08:51:16;100489.59;;;11.96;96.22
63090;BME280;49174;43.198;27.824;2023-04-04T08:53:43;100492.91;;;11.98;96.90
63090;BME280;49174;43.198;27.824;2023-04-04T08:56:09;100494.16;;;12.02;94.54
63090;BME280;49174;43.198;27.824;2023-04-04T08:58:35;100492.91;;;11.98;95.72
63090;BME280;49174;43.198;27.824;2023-04-04T09:01:04;100488.94;;;12.00;96.05
63090;BME280;49174;43.198;27.824;2023-04-04T09:03:30;100485.41;;;12.06;96.50
63090;BME280;49174;43.198;27.824;2023-04-04T09:05:58;100490.34;;;12.16;96.74
63090;BME280;49174;43.198;27.824;2023-04-04T09:08:24;100498.25;;;12.24;95.12
63090;BME280;49174;43.198;27.824;2023-04-04T09:10:51;100485.34;;;12.26;96.03
63090;BME280;49174;43.198;27.824;2023-04-04T09:13:17;100494.03;;;12.28;95.51
63090;BME280;49174;43.198;27.824;2023-04-04T09:15:52;100502.59;;;12.32;95.36
63090;BME280;49174;43.198;27.824;2023-04-04T09:18:18;100506.16;;;12.19;95.56
63090;BME280;49174;43.198;27.824;2023-04-04T09:20:45;100513.66;;;12.24;95.64
63090;BME280;49174;43.198;27.824;2023-04-04T09:25:54;100497.53;;;12.42;95.61
63090;BME280;49174;43.198;27.824;2023-04-04T09:28:21;100502.31;;;12.47;94.79
63090;BME280;49174;43.198;27.824;2023-04-04T09:30:47;100495.19;;;12.52;94.27
63090;BME280;49174;43.198;27.824;2023-04-04T09:33:14;100501.00;;;12.56;93.71
63090;BME280;49174;43.198;27.824;2023-04-04T09:35:46;100500.19;;;12.56;93.98
63090;BME280;49174;43.198;27.824;2023-04-04T09:38:13;100507.28;;;12.57;93.31
63090;BME280;49174;43.198;27.824;2023-04-04T09:40:40;100497.84;;;12.66;93.77
63090;BME280;49174;43.198;27.824;2023-04-04T09:43:07;100505.00;;;12.47;93.87
63090;BME280;49174;43.198;27.824;2023-04-04T09:45:34;100503.31;;;12.59;94.84
63090;BME280;49174;43.198;27.824;2023-04-04T09:48:00;100506.97;;;12.71;93.91
63090;BME280;49174;43.198;27.824;2023-04-04T09:50:27;100512.44;;;12.65;92.25
63090;BME280;49174;43.198;27.824;2023-04-04T09:52:59;100513.25;;;12.65;93.74
63090;BME280;49174;43.198;27.824;2023-04-04T09:57:57;100490.59;;;12.60;93.39
63090;BME280;49174;43.198;27.824;2023-04-04T10:00:27;100497.22;;;12.70;94.33
63090;BME280;49174;43.198;27.824;2023-04-04T10:02:54;100490.09;;;12.76;92.84
63090;BME280;49174;43.198;27.824;2023-04-04T10:05:23;100498.03;;;12.64;94.92
63090;BME280;49174;43.198;27.824;2023-04-04T10:07:48;100501.44;;;12.60;93.93
63090;BME280;49174;43.198;27.824;2023-04-04T10:10:14;100494.84;;;12.81;94.30
63090;BME280;49174;43.198;27.824;2023-04-04T10:12:40;100503.72;;;12.94;92.49
63090;BME280;49174;43.198;27.824;2023-04-04T10:15:06;100495.84;;;12.86;93.39
63090;BME280;49174;43.198;27.824;2023-04-04T10:17:40;100501.00;;;12.94;92.89
63090;BME280;49174;43.198;27.824;2023-04-04T10:20:07;100493.75;;;12.88;91.78
63090;BME280;49174;43.198;27.824;2023-04-04T10:22:35;100495.38;;;12.58;93.15
63090;BME280;49174;43.198;27.824;2023-04-04T10:25:01;100495.63;;;12.49;94.31
63090;BME280;49174;43.198;27.824;2023-04-04T10:27:27;100505.28;;;12.32;96.12
63090;BME280;49174;43.198;27.824;2023-04-04T10:29:53;100496.84;;;12.53;96.82
63090;BME280;49174;43.198;27.824;2023-04-04T10:32:32;100496.00;;;12.60;94.98
63090;BME280;49174;43.198;27.824;2023-04-04T10:35:04;100497.72;;;12.47;94.03
63090;BME280;49174;43.198;27.824;2023-04-04T10:37:36;100499.78;;;12.52;94.49
63090;BME280;49174;43.198;27.824;2023-04-04T10:40:25;100506.13;;;12.33;95.43
63090;BME280;49174;43.198;27.824;2023-04-04T10:42:54;100506.97;;;12.20;96.27
63090;BME280;49174;43.198;27.824;2023-04-04T10:45:22;100506.94;;;12.40;94.98
63090;BME280;49174;43.198;27.824;2023-04-04T10:47:48;100498.59;;;12.41;95.73
63090;BME280;49174;43.198;27.824;2023-04-04T10:50:14;100500.72;;;12.33;95.42
63090;BME280;49174;43.198;27.824;2023-04-04T10:52:42;100505.72;;;12.22;95.84
63090;BME280;49174;43.198;27.824;2023-04-04T10:55:10;100505.97;;;12.21;97.79
63090;BME280;49174;43.198;27.824;2023-04-04T10:57:40;100506.56;;;12.23;97.32
63090;BME280;49174;43.198;27.824;2023-04-04T11:00:08;100505.13;;;12.14;97.26
63090;BME280;49174;43.198;27.824;2023-04-04T11:02:55;100503.03;;;12.22;98.81
63090;BME280;49174;43.198;27.824;2023-04-04T11:10:32;100498.19;;;12.31;97.37
63090;BME280;49174;43.198;27.824;2023-04-04T11:13:09;100497.25;;;12.05;97.88
63090;BME280;49174;43.198;27.824;2023-04-04T11:21:09;100497.47;;;12.04;100.00
63090;BME280;49174;43.198;27.824;2023-04-04T11:26:16;100493.28;;;12.15;99.66
63090;BME280;49174;43.198;27.824;2023-04-04T11:28:43;100488.28;;;12.18;98.89
63090;BME280;49174;43.198;27.824;2023-04-04T11:31:33;100489.81;;;11.94;100.00
63090;BME280;49174;43.198;27.824;2023-04-04T11:34:04;100490.84;;;11.80;100.00
63090;BME280;49174;43.198;27.824;2023-04-04T11:39:44;100486.94;;;11.49;100.00
63090;BME280;49174;43.198;27.824;2023-04-04T11:42:12;100485.28;;;11.35;100.00
63090;BME280;49174;43.198;27.824;2023-04-04T11:47:22;100485.06;;;11.63;100.00
63090;BME280;49174;43.198;27.824;2023-04-04T11:49:49;100483.38;;;11.69;100.00
63090;BME280;49174;43.198;27.824;2023-04-04T11:52:16;100476.91;;;11.83;100.00
63090;BME280;49174;43.198;27.824;2023-04-04T11:54:44;100481.28;;;11.91;100.00
63090;BME280;49174;43.198;27.824;2023-04-04T11:57:11;100482.53;;;11.75;100.00
63090;BME280;49174;43.198;27.824;2023-04-04T11:59:41;100484.22;;;11.76;100.00
63090;BME280;49174;43.198;27.824;2023-04-04T12:02:12;100474.63;;;11.87;100.00
63090;BME280;49174;43.198;27.824;2023-04-04T12:04:40;100477.09;;;12.01;100.00
63090;BME280;49174;43.198;27.824;2023-04-04T12:07:08;100472.09;;;12.05;99.80
63090;BME280;49174;43.198;27.824;2023-04-04T12:09:34;100480.81;;;12.07;99.36
63090;BME280;49174;43.198;27.824;2023-04-04T12:12:01;100486.28;;;11.94;99.62
63090;BME280;49174;43.198;27.824;2023-04-04T12:14:27;100483.59;;;11.87;100.00
63090;BME280;49174;43.198;27.824;2023-04-04T12:16:56;100480.88;;;11.74;100.00
63090;BME280;49174;43.198;27.824;2023-04-04T12:19:24;100482.09;;;11.78;100.00
63090;BME280;49174;43.198;27.824;2023-04-04T12:21:51;100481.09;;;11.79;100.00
63090;BME280;49174;43.198;27.824;2023-04-04T12:24:18;100481.91;;;11.86;100.00
63090;BME280;49174;43.198;27.824;2023-04-04T12:26:46;100472.97;;;11.79;100.00
63090;BME280;49174;43.198;27.824;2023-04-04T12:29:15;100471.50;;;11.83;100.00
63090;BME280;49174;43.198;27.824;2023-04-04T12:31:43;100470.47;;;11.91;100.00
63090;BME280;49174;43.198;27.824;2023-04-04T12:34:21;100462.91;;;12.13;99.95
63090;BME280;49174;43.198;27.824;2023-04-04T12:36:50;100457.38;;;12.39;99.87
63090;BME280;49174;43.198;27.824;2023-04-04T12:39:19;100451.22;;;12.64;97.20
63090;BME280;49174;43.198;27.824;2023-04-04T12:42:00;100460.13;;;12.71;96.96
63090;BME280;49174;43.198;27.824;2023-04-04T12:44:36;100453.41;;;12.80;96.48
63090;BME280;49174;43.198;27.824;2023-04-04T12:47:07;100454.72;;;12.71;95.11
63090;BME280;49174;43.198;27.824;2023-04-04T12:49:40;100456.81;;;12.69;95.70
63090;BME280;49174;43.198;27.824;2023-04-04T12:52:15;100453.59;;;12.85;95.02
63090;BME280;49174;43.198;27.824;2023-04-04T12:54:42;100445.47;;;12.85;94.80
63090;BME280;49174;43.198;27.824;2023-04-04T12:57:09;100441.72;;;13.11;93.58
63090;BME280;49174;43.198;27.824;2023-04-04T12:59:36;100436.34;;;13.05;92.59
63090;BME280;49174;43.198;27.824;2023-04-04T13:02:11;100428.72;;;13.27;94.99
63090;BME280;49174;43.198;27.824;2023-04-04T13:04:38;100425.72;;;13.53;90.26
63090;BME280;49174;43.198;27.824;2023-04-04T13:07:28;100432.72;;;13.43;90.39
63090;BME280;49174;43.198;27.824;2023-04-04T13:09:56;100444.66;;;13.78;92.17
63090;BME280;49174;43.198;27.824;2023-04-04T13:12:22;100441.78;;;13.73;87.67
63090;BME280;49174;43.198;27.824;2023-04-04T13:14:59;100440.50;;;13.76;88.70
63090;BME280;49174;43.198;27.824;2023-04-04T13:17:26;100442.94;;;14.21;88.46
63090;BME280;49174;43.198;27.824;2023-04-04T13:20:02;100437.50;;;14.51;84.28
63090;BME280;49174;43.198;27.824;2023-04-04T13:22:35;100435.09;;;14.61;83.56
63090;BME280;49174;43.198;27.824;2023-04-04T13:25:06;100435.13;;;14.73;83.17
63090;BME280;49174;43.198;27.824;2023-04-04T13:27:33;100430.44;;;14.92;83.54
63090;BME280;49174;43.198;27.824;2023-04-04T13:29:58;100434.59;;;15.06;82.80
63090;BME280;49174;43.198;27.824;2023-04-04T13:32:24;100439.19;;;14.94;82.24
63090;BME280;49174;43.198;27.824;2023-04-04T13:34:50;100434.47;;;14.59;83.28
63090;BME280;49174;43.198;27.824;2023-04-04T13:37:15;100453.28;;;14.61;83.07
63090;BME280;49174;43.198;27.824;2023-04-04T13:39:41;100444.78;;;14.57;83.97
63090;BME280;49174;43.198;27.824;2023-04-04T13:42:06;100445.91;;;14.80;81.59
63090;BME280;49174;43.198;27.824;2023-04-04T13:44:32;100438.94;;;14.84;83.08
63090;BME280;49174;43.198;27.824;2023-04-04T13:46:58;100451.50;;;14.96;83.55
63090;BME280;49174;43.198;27.824;2023-04-04T13:49:24;100444.72;;;14.87;80.67
63090;BME280;49174;43.198;27.824;2023-04-04T13:51:50;100453.28;;;15.14;81.58
63090;BME280;49174;43.198;27.824;2023-04-04T13:54:15;100448.53;;;14.98;80.08
63090;BME280;49174;43.198;27.824;2023-04-04T13:56:41;100445.81;;;14.98;80.50
63090;BME280;49174;43.198;27.824;2023-04-04T13:59:06;100455.72;;;14.92;80.77
63090;BME280;49174;43.198;27.824;2023-04-04T14:01:32;100451.41;;;14.73;80.54
63090;BME280;49174;43.198;27.824;2023-04-04T14:03:58;100446.88;;;14.37;82.33
63090;BME280;49174;43.198;27.824;2023-04-04T14:06:24;100453.50;;;14.41;83.07
63090;BME280;49174;43.198;27.824;2023-04-04T14:08:50;100446.78;;;14.62;82.77
63090;BME280;49174;43.198;27.824;2023-04-04T14:11:16;100450.06;;;14.34;82.82
63090;BME280;49174;43.198;27.824;2023-04-04T14:13:41;100446.47;;;14.03;85.10
63090;BME280;49174;43.198;27.824;2023-04-04T14:16:07;100447.84;;;13.94;84.74
63090;BME280;49174;43.198;27.824;2023-04-04T14:18:33;100458.56;;;13.63;86.60
63090;BME280;49174;43.198;27.824;2023-04-04T14:21:00;100464.63;;;13.15;89.22
63090;BME280;49174;43.198;27.824;2023-04-04T14:23:25;100459.66;;;13.06;90.23
63090;BME280;49174;43.198;27.824;2023-04-04T14:25:51;100458.91;;;12.67;92.79
63090;BME280;49174;43.198;27.824;2023-04-04T14:28:17;100458.94;;;12.60;94.37
63090;BME280;49174;43.198;27.824;2023-04-04T14:30:43;100458.44;;;12.70;94.92
63090;BME280;49174;43.198;27.824;2023-04-04T14:33:08;100454.47;;;12.79;93.62
63090;BME280;49174;43.198;27.824;2023-04-04T14:35:34;100461.31;;;12.82;93.00
63090;BME280;49174;43.198;27.824;2023-04-04T14:38:01;100463.66;;;12.71;93.25
63090;BME280;49174;43.198;27.824;2023-04-04T14:40:27;100464.63;;;12.84;94.16
63090;BME280;49174;43.198;27.824;2023-04-04T14:42:53;100463.19;;;13.06;92.88
63090;BME280;49174;43.198;27.824;2023-04-04T14:45:18;100469.06;;;13.03;91.34
63090;BME280;49174;43.198;27.824;2023-04-04T14:47:44;100469.97;;;12.65;93.92
63090;BME280;49174;43.198;27.824;2023-04-04T14:50:10;100473.06;;;12.69;94.66
63090;BME280;49174;43.198;27.824;2023-04-04T14:52:36;100473.59;;;12.39;95.24
63090;BME280;49174;43.198;27.824;2023-04-04T14:55:01;100472.59;;;12.34;94.77
63090;BME280;49174;43.198;27.824;2023-04-04T14:57:27;100465.75;;;12.31;95.52
63090;BME280;49174;43.198;27.824;2023-04-04T14:59:52;100470.47;;;12.42;94.91
63090;BME280;49174;43.198;27.824;2023-04-04T15:02:19;100469.50;;;12.30;95.95
63090;BME280;49174;43.198;27.824;2023-04-04T15:04:44;100475.69;;;12.44;96.69
63090;BME280;49174;43.198;27.824;2023-04-04T15:07:10;100471.66;;;12.60;95.26
63090;BME280;49174;43.198;27.824;2023-04-04T15:09:35;100479.28;;;12.69;95.20
63090;BME280;49174;43.198;27.824;2023-04-04T15:12:01;100477.75;;;12.48;94.75
63090;BME280;49174;43.198;27.824;2023-04-04T15:14:27;100481.28;;;12.49;95.98
63090;BME280;49174;43.198;27.824;2023-04-04T15:16:52;100494.88;;;12.74;94.60
63090;BME280;49174;43.198;27.824;2023-04-04T15:19:18;100482.09;;;12.88;94.80
63090;BME280;49174;43.198;27.824;2023-04-04T15:21:44;100480.56;;;12.99;93.52
63090;BME280;49174;43.198;27.824;2023-04-04T15:24:10;100487.81;;;13.05;91.67
63090;BME280;49174;43.198;27.824;2023-04-04T15:26:35;100482.84;;;13.02;90.95
63090;BME280;49174;43.198;27.824;2023-04-04T15:29:01;100485.81;;;12.93;91.46
63090;BME280;49174;43.198;27.824;2023-04-04T15:31:26;100480.34;;;13.00;92.20
63090;BME280;49174;43.198;27.824;2023-04-04T15:33:52;100486.72;;;13.12;92.05
63090;BME280;49174;43.198;27.824;2023-04-04T15:36:19;100491.88;;;13.21;92.02
63090;BME280;49174;43.198;27.824;2023-04-04T15:38:47;100490.19;;;13.26;91.00
63090;BME280;49174;43.198;27.824;2023-04-04T15:41:13;100494.00;;;13.12;90.63
63090;BME280;49174;43.198;27.824;2023-04-04T15:43:38;100495.28;;;13.09;90.63
63090;BME280;49174;43.198;27.824;2023-04-04T15:46:04;100492.78;;;13.08;91.73
63090;BME280;49174;43.198;27.824;2023-04-04T15:48:30;100495.56;;;13.01;90.78
63090;BME280;49174;43.198;27.824;2023-04-04T15:50:58;100499.28;;;13.07;91.48
63090;BME280;49174;43.198;27.824;2023-04-04T15:53:26;100499.75;;;13.22;90.55
63090;BME280;49174;43.198;27.824;2023-04-04T15:55:52;100501.59;;;13.35;89.34
63090;BME280;49174;43.198;27.824;2023-04-04T15:58:17;100502.59;;;13.40;88.57
63090;BME280;49174;43.198;27.824;2023-04-04T16:00:46;100499.25;;;13.38;88.78
63090;BME280;49174;43.198;27.824;2023-04-04T16:03:12;100498.47;;;13.31;87.99
63090;BME280;49174;43.198;27.824;2023-04-04T16:05:37;100498.13;;;13.21;89.10
63090;BME280;49174;43.198;27.824;2023-04-04T16:08:03;100502.72;;;13.21;90.26
63090;BME280;49174;43.198;27.824;2023-04-04T16:10:28;100500.75;;;13.03;89.91
63090;BME280;49174;43.198;27.824;2023-04-04T16:12:54;100508.06;;;12.64;90.17
63090;BME280;49174;43.198;27.824;2023-04-04T16:15:20;100497.81;;;12.34;91.30
63090;BME280;49174;43.198;27.824;2023-04-04T16:17:46;100499.75;;;12.07;91.12
63090;BME280;49174;43.198;27.824;2023-04-04T16:20:11;100500.00;;;11.85;93.07
63090;BME280;49174;43.198;27.824;2023-04-04T16:22:37;100501.25;;;11.70;95.29
63090;BME280;49174;43.198;27.824;2023-04-04T16:25:03;100500.22;;;11.57;94.12
63090;BME280;49174;43.198;27.824;2023-04-04T16:27:29;100504.78;;;11.50;94.00
63090;BME280;49174;43.198;27.824;2023-04-04T16:29:55;100506.91;;;11.48;94.54
63090;BME280;49174;43.198;27.824;2023-04-04T16:32:21;100502.94;;;11.44;95.07
63090;BME280;49174;43.198;27.824;2023-04-04T16:34:46;100501.69;;;11.47;94.08
63090;BME280;49174;43.198;27.824;2023-04-04T16:37:12;100508.56;;;11.49;93.07
63090;BME280;49174;43.198;27.824;2023-04-04T16:39:40;100510.84;;;11.46;94.08
63090;BME280;49174;43.198;27.824;2023-04-04T16:42:06;100516.66;;;11.49;93.97
63090;BME280;49174;43.198;27.824;2023-04-04T16:44:31;100519.78;;;11.46;92.88
63090;BME280;49174;43.198;27.824;2023-04-04T16:46:57;100519.53;;;11.01;91.49
63090;BME280;49174;43.198;27.824;2023-04-04T16:49:23;100530.84;;;10.63;94.02
63090;BME280;49174;43.198;27.824;2023-04-04T16:57:38;100540.16;;;10.54;93.45
63090;BME280;49174;43.198;27.824;2023-04-04T17:00:04;100544.31;;;10.57;94.04
63090;BME280;49174;43.198;27.824;2023-04-04T17:02:35;100552.94;;;10.32;93.37
63090;BME280;49174;43.198;27.824;2023-04-04T17:05:13;100550.00;;;10.27;93.30
63090;BME280;49174;43.198;27.824;2023-04-04T17:07:39;100550.75;;;10.14;93.97
63090;BME280;49174;43.198;27.824;2023-04-04T17:10:07;100562.75;;;10.12;94.65
63090;BME280;49174;43.198;27.824;2023-04-04T17:12:35;100565.69;;;9.89;95.43
63090;BME280;49174;43.198;27.824;2023-04-04T20:09:38;100824.72;;;5.31;95.87